sensor_id;sensor_type;location;lat;lon;timestamp;temperature;humidity
10278;DHT22;5184;51.376;7.148;2023-03-01T00:00:04;-2.50;1.00
10278;DHT22;5184;51.376;7.148;2023-03-01T00:02:31;-2.50;1.00
10278;DHT22;5184;51.376;7.148;2023-03-01T00:04:59;-2.60;19.20
10278;DHT22;5184;51.376;7.148;2023-03-01T00:07:25;-2.60;12.00
10278;DHT22;5184;51.376;7.148;2023-03-01T00:09:52;-2.60;60.90
10278;DHT22;5184;51.376;7.148;2023-03-01T00:12:18;-2.60;99.90
10278;DHT22;5184;51.376;7.148;2023-03-01T00:14:46;-2.60;99.90
10278;DHT22;5184;51.376;7.148;2023-03-01T00:17:13;-2.60;99.90
10278;DHT22;5184;51.376;7.148;2023-03-01T00:19:40;-2.60;99.90
10278;DHT22;5184;51.376;7.148;2023-03-01T00:22:06;-2.60;99.90
10278;DHT22;5184;51.376;7.148;2023-03-01T00:24:33;-2.60;99.90
10278;DHT22;5184;51.376;7.148;2023-03-01T00:27:01;-2.60;99.90
10278;DHT22;5184;51.376;7.148;2023-03-01T00:29:28;-2.70;99.90
10278;DHT22;5184;51.376;7.148;2023-03-01T00:31:55;-2.80;99.90
10278;DHT22;5184;51.376;7.148;2023-03-01T00:34:22;-2.70;99.90
10278;DHT22;5184;51.376;7.148;2023-03-01T00:36:49;-2.80;99.90
10278;DHT22;5184;51.376;7.148;2023-03-01T00:39:15;-2.80;99.90
10278;DHT22;5184;51.376;7.148;2023-03-01T00:41:43;-2.90;99.90
10278;DHT22;5184;51.376;7.148;2023-03-01T00:44:10;-2.90;99.90
10278;DHT22;5184;51.376;7.148;2023-03-01T00:46:37;-2.90;99.90
10278;DHT22;5184;51.376;7.148;2023-03-01T00:49:03;-2.90;99.90
10278;DHT22;5184;51.376;7.148;2023-03-01T00:51:30;-3.00;1.00
10278;DHT22;5184;51.376;7.148;2023-03-01T00:53:58;-3.00;1.00
10278;DHT22;5184;51.376;7.148;2023-03-01T00:56:24;-3.00;1.00
10278;DHT22;5184;51.376;7.148;2023-03-01T00:58:50;-3.10;1.00
10278;DHT22;5184;51.376;7.148;2023-03-01T01:01:18;-3.10;1.00
10278;DHT22;5184;51.376;7.148;2023-03-01T01:03:45;-3.10;1.00
10278;DHT22;5184;51.376;7.148;2023-03-01T01:06:13;-3.10;1.00
10278;DHT22;5184;51.376;7.148;2023-03-01T01:08:40;-3.20;1.00
10278;DHT22;5184;51.376;7.148;2023-03-01T01:11:08;-3.30;1.00
10278;DHT22;5184;51.376;7.148;2023-03-01T01:13:34;-3.20;1.00
10278;DHT22;5184;51.376;7.148;2023-03-01T01:16:01;-3.20;1.00
10278;DHT22;5184;51.376;7.148;2023-03-01T01:18:28;-3.20;1.00
10278;DHT22;5184;51.376;7.148;2023-03-01T01:20:54;-3.30;1.00
10278;DHT22;5184;51.376;7.148;2023-03-01T01:23:22;-3.30;1.70
10278;DHT22;5184;51.376;7.148;2023-03-01T01:25:48;-3.40;1.00
10278;DHT22;5184;51.376;7.148;2023-03-01T01:28:15;-3.30;4.70
10278;DHT22;5184;51.376;7.148;2023-03-01T01:30:42;-3.40;99.90
10278;DHT22;5184;51.376;7.148;2023-03-01T01:33:10;-3.50;99.90
10278;DHT22;5184;51.376;7.148;2023-03-01T01:35:36;-3.50;99.90
10278;DHT22;5184;51.376;7.148;2023-03-01T01:38:03;-3.50;99.90
10278;DHT22;5184;51.376;7.148;2023-03-01T01:40:30;-3.50;99.90
10278;DHT22;5184;51.376;7.148;2023-03-01T01:42:57;-3.50;99.90
10278;DHT22;5184;51.376;7.148;2023-03-01T01:45:31;-3.60;99.90
10278;DHT22;5184;51.376;7.148;2023-03-01T01:47:57;-3.50;99.90
10278;DHT22;5184;51.376;7.148;2023-03-01T01:50:22;-3.50;99.90
10278;DHT22;5184;51.376;7.148;2023-03-01T01:52:49;-3.50;99.90
10278;DHT22;5184;51.376;7.148;2023-03-01T01:55:18;-3.60;99.90
10278;DHT22;5184;51.376;7.148;2023-03-01T01:57:44;-3.60;99.90
10278;DHT22;5184;51.376;7.148;2023-03-01T02:00:14;-3.70;99.90
10278;DHT22;5184;51.376;7.148;2023-03-01T02:02:39;-3.80;99.90
10278;DHT22;5184;51.376;7.148;2023-03-01T02:05:09;-3.80;1.00
10278;DHT22;5184;51.376;7.148;2023-03-01T02:07:35;-3.80;1.00
10278;DHT22;5184;51.376;7.148;2023-03-01T02:10:02;-3.80;1.00
10278;DHT22;5184;51.376;7.148;2023-03-01T02:12:29;-3.80;1.00
10278;DHT22;5184;51.376;7.148;2023-03-01T02:14:56;-3.90;1.00
10278;DHT22;5184;51.376;7.148;2023-03-01T02:17:23;-3.90;1.00
10278;DHT22;5184;51.376;7.148;2023-03-01T02:19:59;-3.90;1.00
10278;DHT22;5184;51.376;7.148;2023-03-01T02:22:25;-3.90;1.00
10278;DHT22;5184;51.376;7.148;2023-03-01T02:24:57;-3.90;1.00
10278;DHT22;5184;51.376;7.148;2023-03-01T02:27:22;-4.00;1.00
10278;DHT22;5184;51.376;7.148;2023-03-01T02:29:49;-4.00;99.90
10278;DHT22;5184;51.376;7.148;2023-03-01T02:32:16;-4.00;1.00
10278;DHT22;5184;51.376;7.148;2023-03-01T02:34:43;-4.00;1.00
10278;DHT22;5184;51.376;7.148;2023-03-01T02:37:11;-4.10;1.00
10278;DHT22;5184;51.376;7.148;2023-03-01T02:39:39;-4.10;1.00
10278;DHT22;5184;51.376;7.148;2023-03-01T02:42:04;-4.10;1.00
10278;DHT22;5184;51.376;7.148;2023-03-01T02:44:30;-4.10;1.00
10278;DHT22;5184;51.376;7.148;2023-03-01T02:46:57;-4.10;1.00
10278;DHT22;5184;51.376;7.148;2023-03-01T02:49:27;-4.10;1.00
10278;DHT22;5184;51.376;7.148;2023-03-01T02:55:00;-4.10;99.90
10278;DHT22;5184;51.376;7.148;2023-03-01T02:57:24;-4.10;99.90
10278;DHT22;5184;51.376;7.148;2023-03-01T02:59:51;-4.10;99.90
10278;DHT22;5184;51.376;7.148;2023-03-01T03:02:21;-4.10;99.90
10278;DHT22;5184;51.376;7.148;2023-03-01T03:04:46;-4.20;99.90
10278;DHT22;5184;51.376;7.148;2023-03-01T03:07:13;-4.20;99.90
10278;DHT22;5184;51.376;7.148;2023-03-01T03:09:41;-4.10;1.00
10278;DHT22;5184;51.376;7.148;2023-03-01T03:12:08;-4.10;1.00
10278;DHT22;5184;51.376;7.148;2023-03-01T03:14:35;-4.10;1.00
10278;DHT22;5184;51.376;7.148;2023-03-01T03:17:01;-4.20;1.00
10278;DHT22;5184;51.376;7.148;2023-03-01T03:19:28;-4.20;1.00
10278;DHT22;5184;51.376;7.148;2023-03-01T03:21:55;-3.80;1.00
10278;DHT22;5184;51.376;7.148;2023-03-01T03:24:22;-4.20;46.90
10278;DHT22;5184;51.376;7.148;2023-03-01T03:26:49;-4.20;37.50
10278;DHT22;5184;51.376;7.148;2023-03-01T03:29:16;-4.20;99.90
10278;DHT22;5184;51.376;7.148;2023-03-01T03:31:42;-4.20;99.90
10278;DHT22;5184;51.376;7.148;2023-03-01T03:34:09;-4.20;1.00
10278;DHT22;5184;51.376;7.148;2023-03-01T03:36:36;-4.20;1.00
10278;DHT22;5184;51.376;7.148;2023-03-01T03:39:03;-4.10;99.90
10278;DHT22;5184;51.376;7.148;2023-03-01T03:41:29;-4.00;99.90
10278;DHT22;5184;51.376;7.148;2023-03-01T03:43:56;-4.00;99.90
10278;DHT22;5184;51.376;7.148;2023-03-01T03:46:23;-4.10;1.00
10278;DHT22;5184;51.376;7.148;2023-03-01T03:48:50;-4.30;1.00
10278;DHT22;5184;51.376;7.148;2023-03-01T03:51:17;-4.40;1.00
10278;DHT22;5184;51.376;7.148;2023-03-01T03:53:45;-4.30;1.00
10278;DHT22;5184;51.376;7.148;2023-03-01T03:56:11;-4.40;1.00
10278;DHT22;5184;51.376;7.148;2023-03-01T03:58:38;-4.30;92.40
10278;DHT22;5184;51.376;7.148;2023-03-01T04:01:04;-4.30;99.90
10278;DHT22;5184;51.376;7.148;2023-03-01T04:03:32;-4.30;99.90
10278;DHT22;5184;51.376;7.148;2023-03-01T04:05:59;-4.40;99.90
10278;DHT22;5184;51.376;7.148;2023-03-01T04:08:25;-4.40;99.90
10278;DHT22;5184;51.376;7.148;2023-03-01T04:10:53;-4.30;1.00
10278;DHT22;5184;51.376;7.148;2023-03-01T04:13:20;-4.40;1.00
10278;DHT22;5184;51.376;7.148;2023-03-01T04:15:49;-4.50;1.00
10278;DHT22;5184;51.376;7.148;2023-03-01T04:18:15;-4.50;99.90
10278;DHT22;5184;51.376;7.148;2023-03-01T04:20:42;-4.50;99.90
10278;DHT22;5184;51.376;7.148;2023-03-01T04:23:12;-4.50;99.90
10278;DHT22;5184;51.376;7.148;2023-03-01T04:25:38;-4.50;99.90
10278;DHT22;5184;51.376;7.148;2023-03-01T04:28:05;-4.50;1.00
10278;DHT22;5184;51.376;7.148;2023-03-01T04:30:32;-4.40;1.00
10278;DHT22;5184;51.376;7.148;2023-03-01T04:33:04;-4.40;1.00
10278;DHT22;5184;51.376;7.148;2023-03-01T04:35:30;-4.40;1.00
10278;DHT22;5184;51.376;7.148;2023-03-01T04:37:56;-4.40;48.50
10278;DHT22;5184;51.376;7.148;2023-03-01T04:40:22;-4.30;99.90
10278;DHT22;5184;51.376;7.148;2023-03-01T04:42:49;-4.30;99.90
10278;DHT22;5184;51.376;7.148;2023-03-01T04:45:16;-4.20;99.90
10278;DHT22;5184;51.376;7.148;2023-03-01T04:47:43;-4.20;99.90
10278;DHT22;5184;51.376;7.148;2023-03-01T04:50:10;-4.20;99.90
10278;DHT22;5184;51.376;7.148;2023-03-01T04:52:36;-4.20;99.90
10278;DHT22;5184;51.376;7.148;2023-03-01T04:55:04;-4.20;99.90
10278;DHT22;5184;51.376;7.148;2023-03-01T04:57:31;-4.20;99.90
10278;DHT22;5184;51.376;7.148;2023-03-01T04:59:57;-4.20;99.90
10278;DHT22;5184;51.376;7.148;2023-03-01T05:02:24;-4.20;99.90
10278;DHT22;5184;51.376;7.148;2023-03-01T05:04:51;-4.20;99.90
10278;DHT22;5184;51.376;7.148;2023-03-01T05:07:17;-4.20;99.90
10278;DHT22;5184;51.376;7.148;2023-03-01T05:09:46;-4.30;99.90
10278;DHT22;5184;51.376;7.148;2023-03-01T05:12:13;-4.20;1.00
10278;DHT22;5184;51.376;7.148;2023-03-01T05:14:40;-4.30;1.00
10278;DHT22;5184;51.376;7.148;2023-03-01T05:17:06;-4.30;82.90
10278;DHT22;5184;51.376;7.148;2023-03-01T05:19:33;-4.30;99.90
10278;DHT22;5184;51.376;7.148;2023-03-01T05:21:59;-4.20;99.90
10278;DHT22;5184;51.376;7.148;2023-03-01T05:24:28;-4.20;99.90
10278;DHT22;5184;51.376;7.148;2023-03-01T05:26:55;-4.30;1.00
10278;DHT22;5184;51.376;7.148;2023-03-01T05:29:21;-4.30;1.00
10278;DHT22;5184;51.376;7.148;2023-03-01T05:31:48;-4.30;99.90
10278;DHT22;5184;51.376;7.148;2023-03-01T05:34:15;-4.30;99.90
10278;DHT22;5184;51.376;7.148;2023-03-01T05:36:42;-4.30;99.90
10278;DHT22;5184;51.376;7.148;2023-03-01T05:39:10;-4.30;99.90
10278;DHT22;5184;51.376;7.148;2023-03-01T05:41:37;-4.40;99.90
10278;DHT22;5184;51.376;7.148;2023-03-01T05:44:06;-4.40;1.00
10278;DHT22;5184;51.376;7.148;2023-03-01T05:46:32;-4.40;1.00
10278;DHT22;5184;51.376;7.148;2023-03-01T05:49:00;-4.40;1.00
10278;DHT22;5184;51.376;7.148;2023-03-01T05:51:27;-4.30;1.00
10278;DHT22;5184;51.376;7.148;2023-03-01T05:53:54;-4.40;1.00
10278;DHT22;5184;51.376;7.148;2023-03-01T05:56:21;-4.30;99.90
10278;DHT22;5184;51.376;7.148;2023-03-01T05:58:48;-4.20;99.90
10278;DHT22;5184;51.376;7.148;2023-03-01T06:01:16;-4.20;99.90
10278;DHT22;5184;51.376;7.148;2023-03-01T06:03:42;-4.20;99.90
10278;DHT22;5184;51.376;7.148;2023-03-01T06:06:10;-4.20;99.90
10278;DHT22;5184;51.376;7.148;2023-03-01T06:08:37;-4.20;99.90
10278;DHT22;5184;51.376;7.148;2023-03-01T06:11:04;-4.20;99.90
10278;DHT22;5184;51.376;7.148;2023-03-01T06:13:32;-4.10;99.90
10278;DHT22;5184;51.376;7.148;2023-03-01T06:15:59;-4.10;99.90
10278;DHT22;5184;51.376;7.148;2023-03-01T06:18:26;-4.10;99.90
10278;DHT22;5184;51.376;7.148;2023-03-01T06:20:54;-4.10;99.90
10278;DHT22;5184;51.376;7.148;2023-03-01T06:23:20;-4.10;99.90
10278;DHT22;5184;51.376;7.148;2023-03-01T06:25:46;-4.10;99.90
10278;DHT22;5184;51.376;7.148;2023-03-01T06:28:13;-4.10;99.90
10278;DHT22;5184;51.376;7.148;2023-03-01T06:30:40;-4.10;99.90
10278;DHT22;5184;51.376;7.148;2023-03-01T06:33:07;-4.10;99.90
10278;DHT22;5184;51.376;7.148;2023-03-01T06:35:34;-4.10;99.90
10278;DHT22;5184;51.376;7.148;2023-03-01T06:38:01;-4.10;99.90
10278;DHT22;5184;51.376;7.148;2023-03-01T06:40:27;-4.10;99.90
10278;DHT22;5184;51.376;7.148;2023-03-01T06:42:54;-4.00;99.90
10278;DHT22;5184;51.376;7.148;2023-03-01T06:45:20;-3.70;99.90
10278;DHT22;5184;51.376;7.148;2023-03-01T06:47:47;-4.00;99.90
10278;DHT22;5184;51.376;7.148;2023-03-01T06:50:15;-3.90;99.90
10278;DHT22;5184;51.376;7.148;2023-03-01T06:52:41;-3.90;99.90
10278;DHT22;5184;51.376;7.148;2023-03-01T06:55:08;-3.90;99.90
10278;DHT22;5184;51.376;7.148;2023-03-01T06:57:34;-3.90;99.90
10278;DHT22;5184;51.376;7.148;2023-03-01T07:00:02;-3.90;99.10
10278;DHT22;5184;51.376;7.148;2023-03-01T07:02:28;-3.90;83.80
10278;DHT22;5184;51.376;7.148;2023-03-01T07:04:54;-3.90;54.80
10278;DHT22;5184;51.376;7.148;2023-03-01T07:07:22;-3.90;1.00
10278;DHT22;5184;51.376;7.148;2023-03-01T07:09:48;-3.90;1.00
10278;DHT22;5184;51.376;7.148;2023-03-01T07:12:16;-3.90;1.00
10278;DHT22;5184;51.376;7.148;2023-03-01T07:14:44;-3.80;1.00
10278;DHT22;5184;51.376;7.148;2023-03-01T07:17:10;-3.90;1.00
10278;DHT22;5184;51.376;7.148;2023-03-01T07:19:38;-3.80;99.90
10278;DHT22;5184;51.376;7.148;2023-03-01T07:22:04;-3.90;1.00
10278;DHT22;5184;51.376;7.148;2023-03-01T07:24:31;-3.90;99.90
10278;DHT22;5184;51.376;7.148;2023-03-01T07:26:57;-3.80;1.00
10278;DHT22;5184;51.376;7.148;2023-03-01T07:29:24;-3.80;1.00
10278;DHT22;5184;51.376;7.148;2023-03-01T07:31:51;-3.80;1.00
10278;DHT22;5184;51.376;7.148;2023-03-01T07:34:18;-3.70;1.00
10278;DHT22;5184;51.376;7.148;2023-03-01T07:36:45;-3.70;1.00
10278;DHT22;5184;51.376;7.148;2023-03-01T07:39:12;-3.70;1.00
10278;DHT22;5184;51.376;7.148;2023-03-01T07:41:39;-3.70;99.90
10278;DHT22;5184;51.376;7.148;2023-03-01T07:44:06;-3.70;99.90
10278;DHT22;5184;51.376;7.148;2023-03-01T07:46:34;-3.70;1.00
10278;DHT22;5184;51.376;7.148;2023-03-01T07:49:01;-3.60;99.90
10278;DHT22;5184;51.376;7.148;2023-03-01T07:51:28;-3.60;99.90
10278;DHT22;5184;51.376;7.148;2023-03-01T07:53:54;-3.60;1.00
10278;DHT22;5184;51.376;7.148;2023-03-01T07:56:21;-3.50;1.00
10278;DHT22;5184;51.376;7.148;2023-03-01T07:58:48;-3.40;1.00
10278;DHT22;5184;51.376;7.148;2023-03-01T08:01:17;-3.40;1.00
10278;DHT22;5184;51.376;7.148;2023-03-01T08:03:42;-3.40;1.00
10278;DHT22;5184;51.376;7.148;2023-03-01T08:06:09;-3.40;99.90
10278;DHT22;5184;51.376;7.148;2023-03-01T08:08:35;-3.30;99.90
10278;DHT22;5184;51.376;7.148;2023-03-01T08:11:03;-3.20;99.90
10278;DHT22;5184;51.376;7.148;2023-03-01T08:13:30;-3.20;99.90
10278;DHT22;5184;51.376;7.148;2023-03-01T08:16:02;-3.10;99.90
10278;DHT22;5184;51.376;7.148;2023-03-01T08:18:28;-3.10;99.90
10278;DHT22;5184;51.376;7.148;2023-03-01T08:20:54;-3.10;99.90
10278;DHT22;5184;51.376;7.148;2023-03-01T08:23:21;-3.00;99.90
10278;DHT22;5184;51.376;7.148;2023-03-01T08:25:48;-3.00;99.90
10278;DHT22;5184;51.376;7.148;2023-03-01T08:28:14;-2.90;99.90
10278;DHT22;5184;51.376;7.148;2023-03-01T08:30:41;-2.80;99.90
10278;DHT22;5184;51.376;7.148;2023-03-01T08:33:07;-2.70;47.90
10278;DHT22;5184;51.376;7.148;2023-03-01T08:35:34;-2.70;1.00
10278;DHT22;5184;51.376;7.148;2023-03-01T08:38:01;-2.60;1.00
10278;DHT22;5184;51.376;7.148;2023-03-01T08:40:28;-2.60;1.00
10278;DHT22;5184;51.376;7.148;2023-03-01T08:42:55;-2.50;1.00
10278;DHT22;5184;51.376;7.148;2023-03-01T08:45:21;-2.30;1.00
10278;DHT22;5184;51.376;7.148;2023-03-01T08:47:51;-2.20;1.00
10278;DHT22;5184;51.376;7.148;2023-03-01T08:50:15;-2.00;1.00
10278;DHT22;5184;51.376;7.148;2023-03-01T08:52:42;-1.70;99.90
10278;DHT22;5184;51.376;7.148;2023-03-01T08:55:10;-1.60;1.00
10278;DHT22;5184;51.376;7.148;2023-03-01T08:57:36;-1.60;1.00
10278;DHT22;5184;51.376;7.148;2023-03-01T09:00:03;-1.40;91.10
10278;DHT22;5184;51.376;7.148;2023-03-01T09:02:30;-1.30;99.90
10278;DHT22;5184;51.376;7.148;2023-03-01T09:04:57;-1.20;1.00
10278;DHT22;5184;51.376;7.148;2023-03-01T09:07:25;-0.90;1.00
10278;DHT22;5184;51.376;7.148;2023-03-01T09:09:51;-0.80;7.20
10278;DHT22;5184;51.376;7.148;2023-03-01T09:12:19;-0.60;99.90
10278;DHT22;5184;51.376;7.148;2023-03-01T09:14:46;-0.60;99.90
10278;DHT22;5184;51.376;7.148;2023-03-01T09:17:12;-0.50;99.90
10278;DHT22;5184;51.376;7.148;2023-03-01T09:19:39;-0.30;1.00
10278;DHT22;5184;51.376;7.148;2023-03-01T09:22:07;0.00;1.00
10278;DHT22;5184;51.376;7.148;2023-03-01T09:24:33;0.00;1.00
10278;DHT22;5184;51.376;7.148;2023-03-01T09:27:01;0.20;99.90
10278;DHT22;5184;51.376;7.148;2023-03-01T09:29:28;0.10;99.90
10278;DHT22;5184;51.376;7.148;2023-03-01T09:31:54;0.20;99.90
10278;DHT22;5184;51.376;7.148;2023-03-01T09:34:22;0.50;99.90
10278;DHT22;5184;51.376;7.148;2023-03-01T09:36:49;0.50;99.90
10278;DHT22;5184;51.376;7.148;2023-03-01T09:39:15;0.60;99.90
10278;DHT22;5184;51.376;7.148;2023-03-01T09:41:50;0.80;1.00
10278;DHT22;5184;51.376;7.148;2023-03-01T09:44:24;0.90;99.90
10278;DHT22;5184;51.376;7.148;2023-03-01T09:46:47;1.00;99.90
10278;DHT22;5184;51.376;7.148;2023-03-01T09:49:17;1.10;99.90
10278;DHT22;5184;51.376;7.148;2023-03-01T09:51:42;1.20;1.00
10278;DHT22;5184;51.376;7.148;2023-03-01T09:54:09;1.40;99.90
10278;DHT22;5184;51.376;7.148;2023-03-01T09:56:38;1.50;99.90
10278;DHT22;5184;51.376;7.148;2023-03-01T09:59:24;1.60;99.90
10278;DHT22;5184;51.376;7.148;2023-03-01T10:01:55;1.70;99.90
10278;DHT22;5184;51.376;7.148;2023-03-01T10:04:27;1.70;99.90
10278;DHT22;5184;51.376;7.148;2023-03-01T10:09:34;2.00;1.00
10278;DHT22;5184;51.376;7.148;2023-03-01T10:12:00;2.00;1.00
10278;DHT22;5184;51.376;7.148;2023-03-01T10:17:02;2.20;1.00
10278;DHT22;5184;51.376;7.148;2023-03-01T10:19:36;2.30;99.90
10278;DHT22;5184;51.376;7.148;2023-03-01T10:22:19;2.50;1.00
10278;DHT22;5184;51.376;7.148;2023-03-01T10:24:44;2.60;99.90
10278;DHT22;5184;51.376;7.148;2023-03-01T10:27:18;2.70;99.90
10278;DHT22;5184;51.376;7.148;2023-03-01T10:30:20;2.70;99.90
10278;DHT22;5184;51.376;7.148;2023-03-01T10:32:28;2.70;99.90
10278;DHT22;5184;51.376;7.148;2023-03-01T10:34:55;2.80;1.00
10278;DHT22;5184;51.376;7.148;2023-03-01T10:37:23;2.90;1.00
10278;DHT22;5184;51.376;7.148;2023-03-01T10:40:03;2.90;1.00
10278;DHT22;5184;51.376;7.148;2023-03-01T10:42:30;3.00;1.00
10278;DHT22;5184;51.376;7.148;2023-03-01T10:44:56;3.10;1.00
10278;DHT22;5184;51.376;7.148;2023-03-01T10:47:25;3.10;1.00
10278;DHT22;5184;51.376;7.148;2023-03-01T10:49:54;3.10;1.00
10278;DHT22;5184;51.376;7.148;2023-03-01T10:52:19;3.10;1.00
10278;DHT22;5184;51.376;7.148;2023-03-01T10:54:56;3.20;1.00
10278;DHT22;5184;51.376;7.148;2023-03-01T10:57:28;3.20;1.00
10278;DHT22;5184;51.376;7.148;2023-03-01T11:00:00;3.30;1.00
10278;DHT22;5184;51.376;7.148;2023-03-01T11:02:29;3.30;1.00
10278;DHT22;5184;51.376;7.148;2023-03-01T11:05:03;3.40;1.00
10278;DHT22;5184;51.376;7.148;2023-03-01T11:07:28;3.50;1.00
10278;DHT22;5184;51.376;7.148;2023-03-01T11:09:56;3.50;1.00
10278;DHT22;5184;51.376;7.148;2023-03-01T11:12:24;3.60;1.00
10278;DHT22;5184;51.376;7.148;2023-03-01T11:14:52;3.60;1.00
10278;DHT22;5184;51.376;7.148;2023-03-01T11:17:23;3.60;1.00
10278;DHT22;5184;51.376;7.148;2023-03-01T11:20:00;3.70;1.00
10278;DHT22;5184;51.376;7.148;2023-03-01T11:22:25;3.80;1.00
10278;DHT22;5184;51.376;7.148;2023-03-01T11:24:53;3.80;1.00
10278;DHT22;5184;51.376;7.148;2023-03-01T11:27:24;3.80;1.00
10278;DHT22;5184;51.376;7.148;2023-03-01T11:29:54;3.80;1.00
10278;DHT22;5184;51.376;7.148;2023-03-01T11:32:19;3.80;1.00
10278;DHT22;5184;51.376;7.148;2023-03-01T11:34:53;3.90;1.00
10278;DHT22;5184;51.376;7.148;2023-03-01T11:37:24;3.90;1.00
10278;DHT22;5184;51.376;7.148;2023-03-01T11:39:52;3.90;1.00
10278;DHT22;5184;51.376;7.148;2023-03-01T11:42:19;4.00;1.00
10278;DHT22;5184;51.376;7.148;2023-03-01T11:44:46;4.00;1.00
10278;DHT22;5184;51.376;7.148;2023-03-01T11:47:27;4.00;1.00
10278;DHT22;5184;51.376;7.148;2023-03-01T11:49:59;4.10;1.00
10278;DHT22;5184;51.376;7.148;2023-03-01T11:55:12;4.10;1.00
10278;DHT22;5184;51.376;7.148;2023-03-01T12:00:44;4.20;1.00
10278;DHT22;5184;51.376;7.148;2023-03-01T12:03:27;4.30;1.00
10278;DHT22;5184;51.376;7.148;2023-03-01T12:06:19;4.40;1.00
10278;DHT22;5184;51.376;7.148;2023-03-01T12:08:50;4.50;1.00
10278;DHT22;5184;51.376;7.148;2023-03-01T12:11:25;4.60;1.00
10278;DHT22;5184;51.376;7.148;2023-03-01T12:13:59;4.50;1.00
10278;DHT22;5184;51.376;7.148;2023-03-01T12:16:32;4.60;1.00
10278;DHT22;5184;51.376;7.148;2023-03-01T12:19:06;4.50;1.00
10278;DHT22;5184;51.376;7.148;2023-03-01T12:21:42;4.60;1.00
10278;DHT22;5184;51.376;7.148;2023-03-01T12:24:41;4.60;1.00
10278;DHT22;5184;51.376;7.148;2023-03-01T12:27:12;4.80;1.00
10278;DHT22;5184;51.376;7.148;2023-03-01T12:29:38;5.20;1.00
10278;DHT22;5184;51.376;7.148;2023-03-01T12:32:15;5.00;1.00
10278;DHT22;5184;51.376;7.148;2023-03-01T12:34:49;5.00;1.00
10278;DHT22;5184;51.376;7.148;2023-03-01T12:43:03;4.90;1.00
10278;DHT22;5184;51.376;7.148;2023-03-01T12:48:11;5.00;1.00
10278;DHT22;5184;51.376;7.148;2023-03-01T12:50:38;5.00;1.00
10278;DHT22;5184;51.376;7.148;2023-03-01T12:53:03;5.10;1.00
10278;DHT22;5184;51.376;7.148;2023-03-01T12:55:34;5.20;1.00
10278;DHT22;5184;51.376;7.148;2023-03-01T12:58:38;5.20;1.00
10278;DHT22;5184;51.376;7.148;2023-03-01T13:00:51;5.20;1.00
10278;DHT22;5184;51.376;7.148;2023-03-01T13:03:19;5.30;1.00
10278;DHT22;5184;51.376;7.148;2023-03-01T13:06:08;5.40;1.00
10278;DHT22;5184;51.376;7.148;2023-03-01T13:08:35;5.40;1.00
10278;DHT22;5184;51.376;7.148;2023-03-01T13:11:00;5.30;1.00
10278;DHT22;5184;51.376;7.148;2023-03-01T13:13:27;5.40;1.00
10278;DHT22;5184;51.376;7.148;2023-03-01T13:15:54;5.40;1.00
10278;DHT22;5184;51.376;7.148;2023-03-01T13:18:30;5.40;1.00
10278;DHT22;5184;51.376;7.148;2023-03-01T13:20:56;5.40;1.00
10278;DHT22;5184;51.376;7.148;2023-03-01T13:23:26;5.50;99.90
10278;DHT22;5184;51.376;7.148;2023-03-01T13:26:15;5.50;99.90
10278;DHT22;5184;51.376;7.148;2023-03-01T13:28:48;5.50;99.90
10278;DHT22;5184;51.376;7.148;2023-03-01T13:34:44;5.60;99.90
10278;DHT22;5184;51.376;7.148;2023-03-01T13:36:53;5.70;99.90
10278;DHT22;5184;51.376;7.148;2023-03-01T13:39:27;5.80;99.90
10278;DHT22;5184;51.376;7.148;2023-03-01T13:41:54;5.80;99.90
10278;DHT22;5184;51.376;7.148;2023-03-01T13:44:33;5.90;99.90
10278;DHT22;5184;51.376;7.148;2023-03-01T13:49:56;5.90;99.90
10278;DHT22;5184;51.376;7.148;2023-03-01T13:52:38;5.90;99.90
10278;DHT22;5184;51.376;7.148;2023-03-01T13:57:38;6.10;99.90
10278;DHT22;5184;51.376;7.148;2023-03-01T14:00:06;6.10;99.90
10278;DHT22;5184;51.376;7.148;2023-03-01T14:02:33;6.10;99.90
10278;DHT22;5184;51.376;7.148;2023-03-01T14:05:00;6.00;99.90
10278;DHT22;5184;51.376;7.148;2023-03-01T14:07:27;6.00;99.90
10278;DHT22;5184;51.376;7.148;2023-03-01T14:09:54;6.00;99.90
10278;DHT22;5184;51.376;7.148;2023-03-01T14:12:26;6.00;99.90
10278;DHT22;5184;51.376;7.148;2023-03-01T14:17:44;6.10;99.90
10278;DHT22;5184;51.376;7.148;2023-03-01T14:20:14;6.20;99.90
10278;DHT22;5184;51.376;7.148;2023-03-01T14:22:40;6.30;99.90
10278;DHT22;5184;51.376;7.148;2023-03-01T14:27:39;6.40;99.90
10278;DHT22;5184;51.376;7.148;2023-03-01T14:30:15;6.60;13.20
10278;DHT22;5184;51.376;7.148;2023-03-01T14:32:41;6.60;83.80
10278;DHT22;5184;51.376;7.148;2023-03-01T14:35:29;6.70;40.00
10278;DHT22;5184;51.376;7.148;2023-03-01T14:37:53;6.70;1.00
10278;DHT22;5184;51.376;7.148;2023-03-01T14:40:36;6.70;1.00
10278;DHT22;5184;51.376;7.148;2023-03-01T14:43:04;6.80;1.00
10278;DHT22;5184;51.376;7.148;2023-03-01T14:45:28;6.80;1.00
10278;DHT22;5184;51.376;7.148;2023-03-01T14:47:55;6.80;1.00
10278;DHT22;5184;51.376;7.148;2023-03-01T14:50:26;6.80;1.00
10278;DHT22;5184;51.376;7.148;2023-03-01T14:52:51;6.90;1.00
10278;DHT22;5184;51.376;7.148;2023-03-01T14:55:20;6.90;1.00
10278;DHT22;5184;51.376;7.148;2023-03-01T14:57:49;6.90;1.00
10278;DHT22;5184;51.376;7.148;2023-03-01T15:00:20;6.80;1.00
10278;DHT22;5184;51.376;7.148;2023-03-01T15:02:45;6.80;1.00
10278;DHT22;5184;51.376;7.148;2023-03-01T15:05:13;6.70;1.00
10278;DHT22;5184;51.376;7.148;2023-03-01T15:07:40;6.80;1.00
10278;DHT22;5184;51.376;7.148;2023-03-01T15:10:06;6.90;1.00
10278;DHT22;5184;51.376;7.148;2023-03-01T15:12:35;7.00;1.00
10278;DHT22;5184;51.376;7.148;2023-03-01T15:15:01;7.00;1.00
10278;DHT22;5184;51.376;7.148;2023-03-01T15:17:30;7.10;1.00
10278;DHT22;5184;51.376;7.148;2023-03-01T15:19:56;7.10;1.00
10278;DHT22;5184;51.376;7.148;2023-03-01T15:22:24;7.10;1.00
10278;DHT22;5184;51.376;7.148;2023-03-01T15:24:51;7.10;1.00
10278;DHT22;5184;51.376;7.148;2023-03-01T15:27:19;7.10;1.00
10278;DHT22;5184;51.376;7.148;2023-03-01T15:29:55;7.30;1.00
10278;DHT22;5184;51.376;7.148;2023-03-01T15:32:29;7.20;1.00
10278;DHT22;5184;51.376;7.148;2023-03-01T15:34:55;7.90;1.00
10278;DHT22;5184;51.376;7.148;2023-03-01T15:40:01;8.60;1.00
10278;DHT22;5184;51.376;7.148;2023-03-01T15:42:43;10.20;1.00
10278;DHT22;5184;51.376;7.148;2023-03-01T15:45:21;10.70;1.00
10278;DHT22;5184;51.376;7.148;2023-03-01T15:47:48;10.70;1.00
10278;DHT22;5184;51.376;7.148;2023-03-01T15:50:25;11.20;1.00
10278;DHT22;5184;51.376;7.148;2023-03-01T15:52:53;11.20;1.00
10278;DHT22;5184;51.376;7.148;2023-03-01T15:55:22;11.30;1.00
10278;DHT22;5184;51.376;7.148;2023-03-01T15:57:47;11.30;1.00
10278;DHT22;5184;51.376;7.148;2023-03-01T16:00:14;11.50;1.00
10278;DHT22;5184;51.376;7.148;2023-03-01T16:02:42;10.90;1.00
10278;DHT22;5184;51.376;7.148;2023-03-01T16:05:20;10.90;1.00
10278;DHT22;5184;51.376;7.148;2023-03-01T16:07:45;10.60;1.00
10278;DHT22;5184;51.376;7.148;2023-03-01T16:10:13;10.30;1.00
10278;DHT22;5184;51.376;7.148;2023-03-01T16:12:40;10.20;1.00
10278;DHT22;5184;51.376;7.148;2023-03-01T16:15:13;10.30;1.00
10278;DHT22;5184;51.376;7.148;2023-03-01T16:17:37;10.30;1.00
10278;DHT22;5184;51.376;7.148;2023-03-01T16:20:04;10.30;1.00
10278;DHT22;5184;51.376;7.148;2023-03-01T16:22:31;10.30;1.00
10278;DHT22;5184;51.376;7.148;2023-03-01T16:24:57;10.40;1.00
10278;DHT22;5184;51.376;7.148;2023-03-01T16:27:24;10.20;1.00
10278;DHT22;5184;51.376;7.148;2023-03-01T16:29:51;10.30;1.00
10278;DHT22;5184;51.376;7.148;2023-03-01T16:32:17;10.40;1.00
10278;DHT22;5184;51.376;7.148;2023-03-01T16:34:44;10.30;1.00
10278;DHT22;5184;51.376;7.148;2023-03-01T16:37:10;10.30;1.00
10278;DHT22;5184;51.376;7.148;2023-03-01T16:39:37;10.20;1.00
10278;DHT22;5184;51.376;7.148;2023-03-01T16:42:04;9.80;1.00
10278;DHT22;5184;51.376;7.148;2023-03-01T16:44:32;9.50;1.00